createdAt,value
2018-02-18T00:01:01.423Z,11.43
2018-02-18T00:03:28.954Z,11.03
2018-02-18T00:05:56.496Z,11.10
2018-02-18T00:08:24.113Z,12.07
2018-02-18T00:10:51.602Z,10.87
2018-02-18T00:13:19.126Z,11.43
2018-02-18T00:15:46.647Z,12.00
2018-02-18T00:18:14.177Z,11.20
2018-02-18T00:20:41.695Z,11.40
2018-02-18T00:23:09.216Z,11.73
2018-02-18T00:25:36.738Z,11.87
2018-02-18T00:28:04.259Z,11.53
2018-02-18T00:30:31.780Z,11.80
2018-02-18T00:32:59.367Z,11.50
2018-02-18T00:35:26.884Z,12.30
2018-02-18T00:37:54.445Z,11.30
2018-02-18T00:40:21.963Z,11.47
2018-02-18T00:42:49.481Z,11.40
2018-02-18T00:45:17.053Z,9.63
2018-02-18T00:47:44.593Z,9.87
2018-02-18T00:50:12.124Z,9.37
2018-02-18T00:52:39.701Z,9.43
2018-02-18T00:55:07.225Z,9.07
2018-02-18T00:57:34.751Z,9.40
2018-02-18T01:00:02.284Z,9.70
2018-02-18T01:02:29.837Z,9.30
2018-02-18T01:04:57.434Z,9.63
2018-02-18T01:07:24.969Z,10.27
2018-02-18T01:09:52.553Z,9.67
2018-02-18T01:12:20.078Z,10.90
2018-02-18T01:14:47.672Z,9.93
2018-02-18T01:17:15.239Z,11.07
2018-02-18T01:19:42.766Z,10.50
2018-02-18T01:22:10.301Z,10.00
2018-02-18T01:24:37.808Z,10.17
2018-02-18T01:27:05.329Z,10.37
2018-02-18T01:29:32.859Z,10.77
2018-02-18T01:32:00.376Z,11.20
2018-02-18T01:34:27.958Z,10.80
2018-02-18T01:36:55.506Z,11.07
2018-02-18T01:39:23.035Z,10.73
2018-02-18T01:41:50.638Z,10.50
2018-02-18T01:44:18.169Z,10.67
2018-02-18T01:46:45.685Z,11.00
2018-02-18T01:49:13.314Z,11.10
2018-02-18T01:51:40.881Z,11.93
2018-02-18T01:54:08.436Z,10.80
2018-02-18T01:56:35.958Z,10.67
2018-02-18T01:59:03.480Z,11.33
2018-02-18T02:01:31.118Z,10.57
2018-02-18T02:03:58.668Z,10.40
2018-02-18T02:06:26.194Z,11.80
2018-02-18T02:08:53.728Z,10.70
2018-02-18T02:11:21.347Z,9.73
2018-02-18T02:13:48.862Z,9.97
2018-02-18T02:16:16.380Z,9.53
2018-02-18T02:18:43.901Z,9.57
2018-02-18T02:21:11.426Z,10.13
2018-02-18T02:23:39.040Z,9.53
2018-02-18T02:26:06.605Z,10.07
2018-02-18T02:28:34.133Z,10.40
2018-02-18T02:31:01.726Z,9.60
2018-02-18T02:33:29.253Z,9.07
2018-02-18T02:35:56.848Z,8.27
2018-02-18T02:38:24.385Z,9.57
2018-02-18T02:40:51.965Z,8.67
2018-02-18T02:43:19.496Z,7.97
2018-02-18T02:45:47.023Z,8.03
2018-02-18T02:48:14.623Z,7.60
2018-02-18T02:50:42.133Z,7.63
2018-02-18T02:53:09.669Z,7.77
2018-02-18T02:55:37.185Z,7.17
2018-02-18T02:58:04.785Z,7.77
2018-02-18T03:00:32.312Z,8.10
2018-02-18T03:02:59.841Z,7.57
2018-02-18T03:05:27.348Z,6.63
2018-02-18T03:07:54.882Z,7.27
2018-02-18T03:10:22.418Z,7.53
2018-02-18T03:12:49.933Z,6.93
2018-02-18T03:15:17.496Z,6.47
2018-02-18T03:17:45.061Z,8.20
2018-02-18T03:20:12.618Z,8.40
2018-02-18T03:22:40.181Z,7.40
2018-02-18T03:25:07.688Z,7.47
2018-02-18T03:27:35.207Z,6.27
2018-02-18T03:30:02.737Z,7.30
2018-02-18T03:32:30.260Z,8.00
2018-02-18T03:34:57.772Z,7.03
2018-02-18T03:37:25.279Z,8.40
2018-02-18T03:39:52.784Z,7.83
2018-02-18T03:42:20.301Z,7.33
2018-02-18T03:44:47.844Z,6.57
2018-02-18T03:47:15.360Z,6.53
2018-02-18T03:49:42.929Z,6.87
2018-02-18T03:52:10.489Z,7.17
2018-02-18T03:54:38.017Z,6.43
2018-02-18T03:57:05.538Z,7.00
2018-02-18T03:59:33.052Z,7.23
2018-02-18T04:02:00.567Z,7.20
2018-02-18T04:04:28.185Z,6.57
2018-02-18T04:06:55.713Z,7.67
2018-02-18T04:09:23.253Z,7.30
2018-02-18T04:11:50.768Z,7.50
2018-02-18T04:14:18.281Z,6.40
2018-02-18T04:16:45.798Z,6.90
2018-02-18T04:19:13.312Z,7.50
2018-02-18T04:21:40.844Z,6.53
2018-02-18T04:24:08.468Z,7.90
2018-02-18T04:26:36.023Z,8.47
2018-02-18T04:29:03.585Z,8.73
2018-02-18T04:31:31.141Z,8.53
2018-02-18T04:33:58.653Z,8.73
2018-02-18T04:36:26.161Z,8.60
2018-02-18T04:38:53.721Z,8.53
2018-02-18T04:41:21.265Z,7.83
2018-02-18T04:43:48.840Z,7.43
2018-02-18T04:46:16.369Z,7.83
2018-02-18T04:48:43.897Z,7.40
2018-02-18T04:51:11.413Z,8.33
2018-02-18T04:53:38.921Z,8.10
2018-02-18T04:56:07.361Z,7.50
2018-02-18T04:58:34.930Z,7.50
2018-02-18T05:01:02.451Z,7.77
2018-02-18T05:03:29.996Z,7.50
2018-02-18T05:05:57.510Z,7.87
2018-02-18T05:08:25.058Z,7.47
2018-02-18T05:10:52.570Z,6.73
2018-02-18T05:13:20.176Z,6.87
2018-02-18T05:15:47.732Z,6.37
2018-02-18T05:18:15.261Z,6.07
2018-02-18T05:20:42.821Z,5.77
2018-02-18T05:23:10.336Z,6.30
2018-02-18T05:25:37.844Z,7.27
2018-02-18T05:28:05.396Z,8.47
2018-02-18T05:30:32.925Z,7.00
2018-02-18T05:33:00.550Z,7.20
2018-02-18T05:35:28.063Z,7.50
2018-02-18T05:37:55.582Z,7.47
2018-02-18T05:40:23.145Z,7.93
2018-02-18T05:42:50.661Z,7.80
2018-02-18T05:45:18.192Z,7.53
2018-02-18T05:47:45.813Z,6.87
2018-02-18T05:50:13.353Z,7.30
2018-02-18T05:52:40.885Z,7.53
2018-02-18T05:55:08.405Z,7.07
2018-02-18T05:57:35.920Z,7.27
2018-02-18T06:00:03.509Z,7.17
2018-02-18T06:02:31.022Z,7.43
2018-02-18T06:04:58.542Z,7.40
2018-02-18T06:07:26.070Z,7.80
2018-02-18T06:09:53.661Z,6.70
2018-02-18T06:12:21.173Z,6.60
2018-02-18T06:14:48.694Z,6.67
2018-02-18T06:17:16.214Z,6.63
2018-02-18T06:19:43.783Z,7.20
2018-02-18T06:22:11.308Z,6.93
2018-02-18T06:24:38.900Z,7.20
2018-02-18T06:27:06.465Z,6.40
2018-02-18T06:29:33.996Z,6.77
2018-02-18T06:32:01.522Z,6.90
2018-02-18T06:34:29.058Z,7.20
2018-02-18T06:36:56.578Z,6.57
2018-02-18T06:39:24.165Z,6.90
2018-02-18T06:41:51.721Z,6.90
2018-02-18T06:44:19.232Z,7.40
2018-02-18T06:46:46.745Z,7.13
2018-02-18T06:49:14.253Z,6.57
2018-02-18T06:51:41.860Z,6.67
2018-02-18T06:54:09.398Z,7.07
2018-02-18T06:56:36.923Z,4.20
2018-02-18T06:59:04.454Z,3.50
2018-02-18T07:01:31.967Z,3.47
2018-02-18T07:03:59.490Z,2.50
2018-02-18T07:06:27.002Z,2.53
2018-02-18T07:08:54.530Z,2.80
2018-02-18T07:11:22.051Z,2.83
2018-02-18T07:13:49.607Z,2.60
2018-02-18T07:16:17.148Z,2.20
2018-02-18T07:18:44.662Z,2.80
2018-02-18T07:21:12.172Z,2.43
2018-02-18T07:23:39.680Z,2.57
2018-02-18T07:26:07.272Z,3.17
2018-02-18T07:28:34.856Z,2.53
2018-02-18T07:31:02.415Z,3.00
2018-02-18T07:33:29.923Z,2.63
2018-02-18T07:35:57.547Z,2.30
2018-02-18T07:38:25.068Z,2.60
2018-02-18T07:40:52.648Z,2.70
2018-02-18T07:43:20.157Z,3.43
2018-02-18T07:45:47.673Z,2.50
2018-02-18T07:48:15.255Z,3.10
2018-02-18T07:50:42.908Z,3.57
2018-02-18T07:53:10.419Z,3.27
2018-02-18T07:55:38.008Z,3.40
2018-02-18T07:58:05.573Z,3.77
2018-02-18T08:00:33.135Z,3.57
2018-02-18T08:03:00.641Z,3.40
2018-02-18T08:05:28.159Z,3.80
2018-02-18T08:07:55.689Z,3.27
2018-02-18T08:10:23.247Z,2.90
2018-02-18T08:12:50.794Z,3.27
2018-02-18T08:15:18.307Z,3.43
2018-02-18T08:17:45.821Z,4.60
2018-02-18T08:20:13.405Z,3.90
2018-02-18T08:22:40.911Z,4.50
2018-02-18T08:25:08.540Z,3.83
2018-02-18T08:27:36.093Z,3.77
2018-02-18T08:30:03.622Z,3.13
2018-02-18T08:32:31.160Z,3.20
2018-02-18T08:34:58.688Z,5.93
2018-02-18T08:37:26.202Z,3.67
2018-02-18T08:39:53.786Z,3.43
2018-02-18T08:42:21.297Z,3.57
2018-02-18T08:44:48.806Z,3.33
2018-02-18T08:47:16.310Z,3.80
2018-02-18T08:49:43.822Z,4.20
2018-02-18T08:52:11.333Z,3.77
2018-02-18T08:54:38.859Z,3.87
2018-02-18T08:57:06.377Z,3.97
2018-02-18T08:59:33.885Z,3.57
2018-02-18T09:02:01.416Z,4.40
2018-02-18T09:04:29.006Z,3.67
2018-02-18T09:06:56.524Z,3.90
2018-02-18T09:09:24.045Z,4.77
2018-02-18T09:11:51.661Z,3.00
2018-02-18T09:14:19.170Z,3.63
2018-02-18T09:16:46.791Z,3.33
2018-02-18T09:19:14.302Z,3.70
2018-02-18T09:21:41.826Z,2.97
2018-02-18T09:24:09.333Z,4.30
2018-02-18T09:26:36.854Z,3.27
2018-02-18T09:29:04.363Z,2.87
2018-02-18T09:31:31.897Z,3.13
2018-02-18T09:33:59.406Z,3.03
2018-02-18T09:36:26.916Z,3.50
2018-02-18T09:38:54.554Z,4.03
2018-02-18T09:41:22.064Z,3.80
2018-02-18T09:43:49.573Z,3.50
2018-02-18T09:46:17.086Z,3.80
2018-02-18T09:48:44.771Z,4.50
2018-02-18T09:51:12.300Z,3.43
2018-02-18T09:53:39.881Z,3.97
2018-02-18T09:56:07.394Z,3.53
2018-02-18T09:58:34.929Z,3.37
2018-02-18T10:01:02.438Z,3.20
2018-02-18T10:03:33.832Z,3.60
2018-02-18T10:06:01.341Z,3.30
2018-02-18T10:08:28.850Z,2.97
2018-02-18T10:10:56.360Z,4.00
2018-02-18T10:13:23.868Z,3.37
2018-02-18T10:15:51.368Z,3.33
2018-02-18T10:18:18.869Z,2.57
2018-02-18T10:20:46.388Z,2.87
2018-02-18T10:23:13.905Z,4.17
2018-02-18T10:25:41.412Z,3.40
2018-02-18T10:28:08.916Z,3.30
2018-02-18T10:30:36.424Z,2.87
2018-02-18T10:33:03.933Z,2.97
2018-02-18T10:35:31.447Z,3.17
2018-02-18T10:37:58.961Z,2.67
2018-02-18T10:40:26.464Z,3.00
2018-02-18T10:42:53.977Z,3.00
2018-02-18T10:45:21.486Z,3.00
2018-02-18T10:47:48.997Z,3.00
2018-02-18T10:50:16.503Z,2.90
2018-02-18T10:52:44.025Z,2.80
2018-02-18T10:55:11.533Z,3.00
2018-02-18T10:57:39.040Z,3.53
2018-02-18T11:00:06.549Z,3.10
2018-02-18T11:02:34.052Z,3.13
2018-02-18T11:05:01.591Z,3.50
2018-02-18T11:07:29.122Z,2.90
2018-02-18T11:09:56.644Z,3.60
2018-02-18T11:12:24.158Z,3.43
2018-02-18T11:14:51.668Z,3.57
2018-02-18T11:17:19.188Z,3.03
2018-02-18T11:19:46.699Z,3.13
2018-02-18T11:22:14.205Z,3.20
2018-02-18T11:24:41.710Z,3.10
2018-02-18T11:27:09.224Z,3.60
2018-02-18T11:29:36.745Z,4.10
2018-02-18T11:32:04.258Z,3.07
2018-02-18T11:34:31.765Z,3.53
2018-02-18T11:36:59.276Z,3.43
2018-02-18T11:39:26.811Z,3.67
2018-02-18T11:41:54.337Z,3.30
2018-02-18T11:44:21.915Z,3.53
2018-02-18T11:46:49.421Z,3.27
2018-02-18T11:49:16.944Z,3.03
2018-02-18T11:51:44.458Z,3.47
2018-02-18T11:54:11.972Z,3.70
2018-02-18T11:56:39.492Z,4.17
2018-02-18T11:59:07.004Z,4.67
2018-02-18T12:01:34.513Z,3.60
2018-02-18T12:04:02.034Z,3.80
2018-02-18T12:06:29.541Z,3.70
2018-02-18T12:08:57.047Z,3.63
2018-02-18T12:11:24.560Z,4.03
2018-02-18T12:13:52.060Z,3.47
2018-02-18T12:16:19.592Z,3.83
2018-02-18T12:18:47.104Z,4.90
2018-02-18T12:21:14.630Z,4.90
2018-02-18T12:23:42.137Z,4.73
2018-02-18T12:26:09.657Z,4.63
2018-02-18T12:28:37.180Z,4.47
2018-02-18T12:31:04.702Z,4.17
2018-02-18T12:33:32.217Z,4.70
2018-02-18T12:35:59.732Z,4.40
2018-02-18T12:38:27.278Z,5.53
2018-02-18T12:40:54.797Z,5.33
2018-02-18T12:43:22.305Z,5.03
2018-02-18T12:45:49.818Z,5.70
2018-02-18T12:48:17.321Z,5.07
2018-02-18T12:50:44.825Z,5.73
2018-02-18T12:53:12.336Z,4.57
2018-02-18T12:55:39.864Z,5.40
2018-02-18T12:58:07.413Z,4.87
2018-02-18T13:00:34.928Z,5.23
2018-02-18T13:03:02.438Z,4.73
2018-02-18T13:05:29.962Z,5.07
2018-02-18T13:07:57.476Z,5.20
2018-02-18T13:10:25.006Z,5.43
2018-02-18T13:12:52.526Z,6.03
2018-02-18T13:15:20.034Z,5.63
2018-02-18T13:17:47.606Z,6.07
2018-02-18T13:20:15.120Z,5.77
2018-02-18T13:22:42.699Z,5.53
2018-02-18T13:25:10.212Z,6.23
2018-02-18T13:27:37.729Z,6.57
2018-02-18T13:30:05.252Z,5.67
2018-02-18T13:32:32.814Z,5.93
2018-02-18T13:35:00.495Z,5.60
2018-02-18T13:37:28.049Z,5.70
2018-02-18T13:39:55.575Z,6.50
2018-02-18T13:42:23.205Z,5.80
2018-02-18T13:44:50.745Z,5.87
2018-02-18T13:47:18.248Z,5.47
2018-02-18T13:49:45.760Z,5.93
2018-02-18T13:52:13.264Z,5.17
2018-02-18T13:54:40.821Z,6.23
2018-02-18T13:57:08.347Z,5.57
2018-02-18T13:59:35.856Z,4.83
2018-02-18T14:02:03.371Z,5.13
2018-02-18T14:04:30.991Z,4.63
2018-02-18T14:06:58.522Z,4.40
2018-02-18T14:09:26.116Z,4.20
2018-02-18T14:11:53.678Z,4.43
2018-02-18T14:14:21.202Z,4.00
2018-02-18T14:16:48.717Z,4.37
2018-02-18T14:19:16.250Z,4.07
2018-02-18T14:21:43.766Z,3.67
2018-02-18T14:24:11.284Z,3.63
2018-02-18T14:26:38.788Z,3.50
2018-02-18T14:29:06.304Z,3.70
2018-02-18T14:31:33.833Z,3.87
2018-02-18T14:34:01.357Z,3.90
2018-02-18T14:36:28.900Z,3.67
2018-02-18T14:38:56.446Z,4.40
2018-02-18T14:41:35.728Z,3.80
2018-02-18T14:44:15.210Z,3.60
2018-02-18T14:46:54.745Z,3.93
2018-02-18T14:49:34.181Z,3.27
2018-02-18T14:52:13.602Z,3.53
2018-02-18T14:57:44.340Z,3.20
2018-02-18T15:00:11.848Z,2.97
2018-02-18T15:02:39.353Z,3.23
2018-02-18T15:05:06.879Z,3.60
2018-02-18T15:07:34.409Z,3.10
2018-02-18T15:10:01.973Z,3.30
2018-02-18T15:12:29.492Z,3.10
2018-02-18T15:14:57.013Z,3.93
2018-02-18T16:39:21.492Z,6.47
2018-02-18T16:41:49.003Z,5.27
2018-02-18T16:44:16.506Z,5.07
2018-02-18T16:46:44.116Z,5.23
2018-02-18T16:49:11.622Z,5.90
2018-02-18T16:51:39.125Z,5.30
2018-02-18T16:54:06.636Z,4.87
2018-02-18T16:56:34.144Z,4.53
2018-02-18T16:59:01.683Z,4.43
2018-02-18T17:01:29.189Z,4.87
2018-02-18T17:03:56.733Z,4.37
2018-02-18T17:06:24.245Z,4.13
2018-02-18T17:08:51.792Z,5.30
2018-02-18T17:11:19.292Z,4.80
2018-02-18T17:13:46.872Z,4.27
2018-02-18T17:16:14.376Z,4.13
2018-02-18T17:18:41.893Z,5.50
2018-02-18T17:21:09.400Z,5.40
2018-02-18T17:23:36.905Z,4.70
2018-02-18T17:26:04.416Z,5.17
2018-02-18T17:28:31.937Z,5.40
2018-02-18T17:30:59.454Z,5.20
2018-02-18T17:33:26.985Z,5.37
2018-02-18T17:35:54.609Z,5.40
2018-02-18T17:38:22.114Z,5.57
2018-02-18T17:40:49.621Z,5.77
2018-02-18T17:43:17.124Z,5.30
2018-02-18T17:45:44.754Z,5.70
2018-02-18T17:48:12.272Z,5.53
2018-02-18T17:50:39.864Z,5.50
2018-02-18T17:53:07.372Z,5.67
2018-02-18T17:55:34.882Z,5.10
2018-02-18T17:58:02.397Z,5.47
2018-02-18T18:00:30.002Z,6.07
2018-02-18T18:02:57.563Z,6.00
2018-02-18T18:05:25.075Z,6.07
2018-02-18T18:07:52.580Z,6.03
2018-02-18T18:10:20.152Z,6.53
2018-02-18T18:12:47.667Z,6.23
2018-02-18T18:15:15.182Z,5.93
2018-02-18T18:17:42.693Z,6.50
2018-02-18T18:20:10.196Z,6.20
2018-02-18T18:22:37.729Z,6.17
2018-02-18T18:25:05.240Z,6.17
2018-02-18T18:27:32.852Z,5.60
2018-02-18T18:30:00.391Z,6.13
2018-02-18T18:32:27.943Z,6.63
2018-02-18T18:34:55.446Z,6.53
2018-02-18T18:37:22.957Z,6.63
2018-02-18T18:39:50.475Z,6.87
2018-02-18T18:42:17.981Z,6.63
2018-02-18T18:44:45.571Z,6.57
2018-02-18T18:47:13.096Z,6.27
2018-02-18T18:49:40.608Z,6.83
2018-02-18T18:52:08.134Z,6.57
2018-02-18T18:54:36.596Z,6.80
2018-02-18T18:57:04.103Z,7.00
2018-02-18T18:59:32.532Z,6.90
2018-02-18T19:02:00.050Z,6.73
2018-02-18T19:04:27.624Z,6.60
2018-02-18T19:06:55.141Z,6.90
2018-02-18T19:09:22.653Z,7.07
2018-02-18T19:11:50.173Z,7.17
2018-02-18T19:14:17.701Z,7.77
2018-02-18T19:16:45.209Z,7.23
2018-02-18T19:19:12.761Z,6.67
2018-02-18T19:21:40.316Z,7.50
2018-02-18T19:24:07.862Z,7.13
2018-02-18T19:26:35.371Z,7.20
2018-02-18T19:29:02.981Z,7.40
2018-02-18T19:31:30.492Z,7.50
2018-02-18T19:33:58.011Z,7.57
2018-02-18T19:36:25.576Z,7.17
2018-02-18T19:38:53.099Z,7.30
2018-02-18T19:41:21.548Z,8.17
2018-02-18T19:43:49.068Z,7.27
2018-02-18T19:46:16.583Z,7.37
2018-02-18T19:48:44.101Z,7.57
2018-02-18T19:51:11.619Z,7.20
2018-02-18T19:53:39.137Z,7.13
2018-02-18T19:56:06.656Z,7.00
2018-02-18T19:58:34.160Z,6.73
2018-02-18T20:01:01.674Z,6.80
2018-02-18T20:03:29.233Z,6.80
2018-02-18T20:05:56.792Z,7.33
2018-02-18T20:08:24.353Z,7.20
2018-02-18T20:10:51.873Z,7.27
2018-02-18T20:13:19.419Z,7.07
2018-02-18T20:15:46.914Z,7.03
2018-02-18T20:18:14.449Z,7.33
2018-02-18T20:20:41.964Z,7.13
2018-02-18T20:23:09.480Z,8.23
2018-02-18T20:25:37.028Z,8.77
2018-02-18T20:28:04.590Z,8.30
2018-02-18T20:30:32.098Z,8.03
2018-02-18T20:32:59.614Z,7.93
2018-02-18T20:35:27.164Z,7.67
2018-02-18T20:37:54.747Z,7.80
2018-02-18T20:40:22.289Z,8.03
2018-02-18T20:42:49.839Z,7.90
2018-02-18T20:45:17.462Z,8.53
2018-02-18T20:47:44.972Z,8.97
2018-02-18T20:50:12.491Z,8.23
2018-02-18T20:52:40.002Z,8.00
2018-02-18T20:55:07.548Z,8.33
2018-02-18T20:57:35.059Z,8.23
2018-02-18T21:00:02.579Z,8.47
2018-02-18T21:02:30.088Z,8.20
2018-02-18T21:04:57.599Z,8.47
2018-02-18T21:07:25.105Z,8.17
2018-02-18T21:09:52.618Z,9.00
2018-02-18T21:12:20.154Z,8.03
2018-02-18T21:14:47.674Z,8.13
2018-02-18T21:17:15.182Z,8.13
2018-02-18T21:19:42.693Z,8.10
2018-02-18T21:22:10.192Z,8.77
2018-02-18T21:24:37.724Z,7.83
2018-02-18T21:27:05.235Z,8.20
2018-02-18T21:29:32.753Z,8.20
2018-02-18T21:32:00.279Z,8.07
2018-02-18T21:34:27.837Z,8.83
2018-02-18T21:36:55.341Z,7.73
2018-02-18T21:39:22.841Z,8.37
2018-02-18T21:41:50.354Z,8.10
2018-02-18T21:44:17.873Z,8.43
2018-02-18T21:46:45.387Z,7.93
2018-02-18T21:49:12.917Z,8.83
2018-02-18T21:51:40.445Z,8.80
2018-02-18T21:54:07.954Z,8.90
2018-02-18T21:56:35.473Z,8.17
2018-02-18T21:59:02.985Z,8.60
2018-02-18T22:01:30.493Z,8.07
2018-02-18T22:03:58.002Z,8.10
2018-02-18T22:06:25.509Z,8.67
2018-02-18T22:08:53.022Z,8.17
2018-02-18T22:11:20.533Z,8.00
2018-02-18T22:13:48.041Z,8.03
2018-02-18T22:16:15.568Z,8.90
2018-02-18T22:18:43.073Z,8.10
2018-02-18T22:21:10.586Z,9.00
2018-02-18T22:23:38.093Z,9.03
2018-02-18T22:26:05.609Z,8.83
2018-02-18T22:28:33.156Z,9.27
2018-02-18T22:31:00.660Z,8.23
2018-02-18T22:33:28.178Z,9.00
2018-02-18T22:35:55.714Z,9.20
2018-02-18T22:38:23.262Z,9.27
2018-02-18T22:40:50.774Z,9.20
2018-02-18T22:43:18.280Z,10.43
2018-02-18T22:45:45.801Z,10.13
2018-02-18T22:48:13.317Z,9.17
2018-02-18T22:50:40.844Z,11.33
2018-02-18T22:53:08.356Z,10.23
2018-02-18T22:55:35.872Z,10.43
2018-02-18T22:58:03.385Z,10.33
2018-02-18T23:00:30.894Z,10.23
2018-02-18T23:02:58.420Z,10.37
2018-02-18T23:05:31.443Z,10.23
2018-02-18T23:07:58.948Z,10.13
2018-02-18T23:10:26.478Z,10.50
2018-02-18T23:12:54.005Z,10.30
2018-02-18T23:15:21.535Z,10.23
2018-02-18T23:17:49.051Z,10.77
2018-02-18T23:20:16.560Z,9.67
2018-02-18T23:22:44.154Z,11.90
2018-02-18T23:25:11.681Z,10.63
2018-02-18T23:27:39.196Z,11.03
2018-02-18T23:30:06.705Z,10.80
2018-02-18T23:32:34.224Z,9.70
2018-02-18T23:35:01.735Z,9.97
2018-02-18T23:37:29.280Z,10.17
2018-02-18T23:39:56.871Z,10.03
2018-02-18T23:42:24.389Z,10.10
2018-02-18T23:44:51.998Z,9.90
2018-02-18T23:47:19.543Z,10.17
2018-02-18T23:49:47.053Z,10.63
2018-02-18T23:52:14.565Z,10.60
2018-02-18T23:54:42.082Z,10.70
2018-02-18T23:57:09.696Z,10.23
2018-02-18T23:59:37.228Z,9.73
